sensor_id;sensor_type;location;lat;lon;timestamp;P1;durP1;ratioP1;P2;durP2;ratioP2
51020;SDS011;38907;45.562;8.856;2022-10-03T00:02:10;8.32;;;5.45;;
51020;SDS011;38907;45.562;8.856;2022-10-03T00:07:23;9.52;;;5.00;;
51020;SDS011;38907;45.562;8.856;2022-10-03T00:12:48;10.43;;;5.07;;
51020;SDS011;38907;45.562;8.856;2022-10-03T00:18:06;8.98;;;5.20;;
51020;SDS011;38907;45.562;8.856;2022-10-03T00:23:20;12.43;;;5.40;;
51020;SDS011;38907;45.562;8.856;2022-10-03T00:28:40;11.88;;;5.38;;
51020;SDS011;38907;45.562;8.856;2022-10-03T00:33:57;9.43;;;5.10;;
51020;SDS011;38907;45.562;8.856;2022-10-03T00:39:12;10.57;;;5.30;;
51020;SDS011;38907;45.562;8.856;2022-10-03T00:44:49;6.72;;;5.43;;
51020;SDS011;38907;45.562;8.856;2022-10-03T00:55:50;8.68;;;5.70;;
51020;SDS011;38907;45.562;8.856;2022-10-03T01:01:20;11.30;;;5.03;;
51020;SDS011;38907;45.562;8.856;2022-10-03T01:06:28;10.38;;;5.35;;
51020;SDS011;38907;45.562;8.856;2022-10-03T01:11:40;7.82;;;5.85;;
51020;SDS011;38907;45.562;8.856;2022-10-03T01:16:53;16.38;;;5.18;;
51020;SDS011;38907;45.562;8.856;2022-10-03T01:22:08;6.60;;;4.93;;
51020;SDS011;38907;45.562;8.856;2022-10-03T01:27:25;6.97;;;4.45;;
51020;SDS011;38907;45.562;8.856;2022-10-03T01:33:01;6.97;;;4.53;;
51020;SDS011;38907;45.562;8.856;2022-10-03T01:38:13;7.53;;;5.10;;
51020;SDS011;38907;45.562;8.856;2022-10-03T01:43:20;8.48;;;4.90;;
51020;SDS011;38907;45.562;8.856;2022-10-03T01:48:28;4.90;;;3.90;;
51020;SDS011;38907;45.562;8.856;2022-10-03T01:53:41;9.20;;;4.50;;
51020;SDS011;38907;45.562;8.856;2022-10-03T01:58:51;5.80;;;4.07;;
51020;SDS011;38907;45.562;8.856;2022-10-03T02:04:01;5.68;;;3.97;;
51020;SDS011;38907;45.562;8.856;2022-10-03T02:09:08;5.45;;;3.90;;
51020;SDS011;38907;45.562;8.856;2022-10-03T02:14:19;10.57;;;3.78;;
51020;SDS011;38907;45.562;8.856;2022-10-03T02:19:28;5.60;;;4.30;;
51020;SDS011;38907;45.562;8.856;2022-10-03T02:24:39;8.23;;;4.03;;
51020;SDS011;38907;45.562;8.856;2022-10-03T02:29:50;6.45;;;4.22;;
51020;SDS011;38907;45.562;8.856;2022-10-03T02:52:11;4.00;;;3.40;;
51020;SDS011;38907;45.562;8.856;2022-10-03T02:57:37;5.15;;;3.28;;
51020;SDS011;38907;45.562;8.856;2022-10-03T03:19:36;5.45;;;4.45;;
51020;SDS011;38907;45.562;8.856;2022-10-03T03:24:55;5.15;;;4.20;;
51020;SDS011;38907;45.562;8.856;2022-10-03T03:30:08;8.00;;;4.00;;
51020;SDS011;38907;45.562;8.856;2022-10-03T03:35:18;4.63;;;3.67;;
51020;SDS011;38907;45.562;8.856;2022-10-03T03:40:30;5.50;;;3.85;;
51020;SDS011;38907;45.562;8.856;2022-10-03T03:45:52;6.05;;;3.75;;
51020;SDS011;38907;45.562;8.856;2022-10-03T03:51:09;4.72;;;4.05;;
51020;SDS011;38907;45.562;8.856;2022-10-03T03:56:26;5.60;;;4.05;;
51020;SDS011;38907;45.562;8.856;2022-10-03T04:01:40;7.25;;;4.22;;
51020;SDS011;38907;45.562;8.856;2022-10-03T04:06:56;5.32;;;4.07;;
51020;SDS011;38907;45.562;8.856;2022-10-03T04:12:08;5.65;;;4.45;;
51020;SDS011;38907;45.562;8.856;2022-10-03T04:17:27;5.72;;;3.90;;
51020;SDS011;38907;45.562;8.856;2022-10-03T04:23:10;4.18;;;3.70;;
51020;SDS011;38907;45.562;8.856;2022-10-03T04:28:34;8.85;;;3.92;;
51020;SDS011;38907;45.562;8.856;2022-10-03T04:33:50;4.57;;;3.50;;
51020;SDS011;38907;45.562;8.856;2022-10-03T04:39:08;5.53;;;3.92;;
51020;SDS011;38907;45.562;8.856;2022-10-03T04:44:19;7.03;;;3.92;;
51020;SDS011;38907;45.562;8.856;2022-10-03T04:49:34;4.50;;;3.60;;
51020;SDS011;38907;45.562;8.856;2022-10-03T04:54:45;6.35;;;4.50;;
51020;SDS011;38907;45.562;8.856;2022-10-03T04:59:56;5.93;;;4.57;;
51020;SDS011;38907;45.562;8.856;2022-10-03T05:05:17;9.43;;;5.60;;
51020;SDS011;38907;45.562;8.856;2022-10-03T05:10:46;13.27;;;6.20;;
51020;SDS011;38907;45.562;8.856;2022-10-03T05:15:58;9.20;;;6.00;;
51020;SDS011;38907;45.562;8.856;2022-10-03T05:21:08;10.68;;;5.75;;
51020;SDS011;38907;45.562;8.856;2022-10-03T05:26:20;18.63;;;5.90;;
51020;SDS011;38907;45.562;8.856;2022-10-03T05:31:34;15.90;;;6.57;;
51020;SDS011;38907;45.562;8.856;2022-10-03T05:36:50;13.68;;;6.47;;
51020;SDS011;38907;45.562;8.856;2022-10-03T05:42:13;13.38;;;6.63;;
51020;SDS011;38907;45.562;8.856;2022-10-03T05:47:29;14.25;;;7.32;;
51020;SDS011;38907;45.562;8.856;2022-10-03T05:52:52;13.68;;;7.18;;
51020;SDS011;38907;45.562;8.856;2022-10-03T06:03:57;16.48;;;8.45;;
51020;SDS011;38907;45.562;8.856;2022-10-03T06:09:30;15.57;;;9.50;;
51020;SDS011;38907;45.562;8.856;2022-10-03T06:14:49;14.98;;;9.73;;
51020;SDS011;38907;45.562;8.856;2022-10-03T06:20:27;14.93;;;9.25;;
51020;SDS011;38907;45.562;8.856;2022-10-03T06:25:55;15.75;;;10.38;;
51020;SDS011;38907;45.562;8.856;2022-10-03T06:36:59;24.60;;;11.70;;
51020;SDS011;38907;45.562;8.856;2022-10-03T06:42:19;20.42;;;11.55;;
51020;SDS011;38907;45.562;8.856;2022-10-03T06:47:48;16.45;;;11.25;;
51020;SDS011;38907;45.562;8.856;2022-10-03T06:53:09;21.20;;;12.32;;
51020;SDS011;38907;45.562;8.856;2022-10-03T07:04:17;21.02;;;11.60;;
51020;SDS011;38907;45.562;8.856;2022-10-03T07:15:14;20.83;;;11.60;;
51020;SDS011;38907;45.562;8.856;2022-10-03T07:26:18;23.17;;;11.50;;
51020;SDS011;38907;45.562;8.856;2022-10-03T07:31:57;26.00;;;11.00;;
51020;SDS011;38907;45.562;8.856;2022-10-03T07:37:29;20.23;;;12.32;;
51020;SDS011;38907;45.562;8.856;2022-10-03T07:43:26;19.98;;;10.60;;
51020;SDS011;38907;45.562;8.856;2022-10-03T07:49:07;25.50;;;12.23;;
51020;SDS011;38907;45.562;8.856;2022-10-03T07:54:27;24.58;;;10.85;;
51020;SDS011;38907;45.562;8.856;2022-10-03T07:59:57;19.05;;;11.38;;
51020;SDS011;38907;45.562;8.856;2022-10-03T08:05:21;20.08;;;11.73;;
51020;SDS011;38907;45.562;8.856;2022-10-03T08:10:41;21.90;;;11.95;;
51020;SDS011;38907;45.562;8.856;2022-10-03T08:16:07;21.65;;;12.30;;
51020;SDS011;38907;45.562;8.856;2022-10-03T08:21:19;24.05;;;13.63;;
51020;SDS011;38907;45.562;8.856;2022-10-03T08:26:30;27.77;;;13.68;;
51020;SDS011;38907;45.562;8.856;2022-10-03T08:37:23;22.90;;;13.57;;
51020;SDS011;38907;45.562;8.856;2022-10-03T08:48:47;23.90;;;12.73;;
51020;SDS011;38907;45.562;8.856;2022-10-03T08:54:13;23.27;;;11.85;;
51020;SDS011;38907;45.562;8.856;2022-10-03T09:10:55;17.05;;;11.20;;
51020;SDS011;38907;45.562;8.856;2022-10-03T09:16:34;22.15;;;10.63;;
51020;SDS011;38907;45.562;8.856;2022-10-03T09:21:57;18.63;;;10.73;;
51020;SDS011;38907;45.562;8.856;2022-10-03T09:27:26;20.05;;;10.45;;
51020;SDS011;38907;45.562;8.856;2022-10-03T09:32:57;20.75;;;11.20;;
51020;SDS011;38907;45.562;8.856;2022-10-03T09:38:26;22.17;;;11.45;;
51020;SDS011;38907;45.562;8.856;2022-10-03T09:49:39;15.70;;;9.63;;
51020;SDS011;38907;45.562;8.856;2022-10-03T09:55:14;20.58;;;10.73;;
51020;SDS011;38907;45.562;8.856;2022-10-03T10:00:34;19.65;;;10.05;;
51020;SDS011;38907;45.562;8.856;2022-10-03T10:05:56;18.75;;;10.25;;
51020;SDS011;38907;45.562;8.856;2022-10-03T10:11:20;21.90;;;9.85;;
51020;SDS011;38907;45.562;8.856;2022-10-03T10:16:39;13.43;;;7.75;;
51020;SDS011;38907;45.562;8.856;2022-10-03T10:22:13;18.40;;;9.80;;
51020;SDS011;38907;45.562;8.856;2022-10-03T10:39:20;16.63;;;7.40;;
51020;SDS011;38907;45.562;8.856;2022-10-03T11:07:21;10.68;;;6.38;;
51020;SDS011;38907;45.562;8.856;2022-10-03T11:41:17;7.70;;;4.80;;
51020;SDS011;38907;45.562;8.856;2022-10-03T11:46:34;15.73;;;6.50;;
51020;SDS011;38907;45.562;8.856;2022-10-03T11:51:52;11.30;;;5.22;;
51020;SDS011;38907;45.562;8.856;2022-10-03T11:57:06;8.00;;;5.28;;
51020;SDS011;38907;45.562;8.856;2022-10-03T12:02:11;12.52;;;5.47;;
51020;SDS011;38907;45.562;8.856;2022-10-03T12:07:23;8.02;;;4.82;;
51020;SDS011;38907;45.562;8.856;2022-10-03T12:13:12;10.75;;;4.75;;
51020;SDS011;38907;45.562;8.856;2022-10-03T12:18:19;11.27;;;4.95;;
51020;SDS011;38907;45.562;8.856;2022-10-03T12:23:31;8.38;;;5.40;;
51020;SDS011;38907;45.562;8.856;2022-10-03T12:28:52;14.48;;;6.80;;
51020;SDS011;38907;45.562;8.856;2022-10-03T12:33:57;10.93;;;5.72;;
51020;SDS011;38907;45.562;8.856;2022-10-03T12:39:16;9.73;;;5.32;;
51020;SDS011;38907;45.562;8.856;2022-10-03T12:44:34;14.48;;;6.55;;
51020;SDS011;38907;45.562;8.856;2022-10-03T12:49:49;12.30;;;6.55;;
51020;SDS011;38907;45.562;8.856;2022-10-03T12:55:00;13.23;;;6.82;;
51020;SDS011;38907;45.562;8.856;2022-10-03T13:00:18;11.40;;;6.45;;
51020;SDS011;38907;45.562;8.856;2022-10-03T13:05:33;15.25;;;8.20;;
51020;SDS011;38907;45.562;8.856;2022-10-03T13:10:44;14.23;;;8.50;;
51020;SDS011;38907;45.562;8.856;2022-10-03T13:15:56;14.23;;;8.05;;
51020;SDS011;38907;45.562;8.856;2022-10-03T13:21:17;12.82;;;7.22;;
51020;SDS011;38907;45.562;8.856;2022-10-03T13:26:35;10.32;;;5.65;;
51020;SDS011;38907;45.562;8.856;2022-10-03T13:31:52;12.98;;;6.78;;
51020;SDS011;38907;45.562;8.856;2022-10-03T13:37:03;14.50;;;7.72;;
51020;SDS011;38907;45.562;8.856;2022-10-03T13:42:10;13.30;;;7.47;;
51020;SDS011;38907;45.562;8.856;2022-10-03T13:47:24;17.75;;;8.70;;
51020;SDS011;38907;45.562;8.856;2022-10-03T13:52:38;12.48;;;8.23;;
51020;SDS011;38907;45.562;8.856;2022-10-03T13:57:49;17.15;;;6.45;;
51020;SDS011;38907;45.562;8.856;2022-10-03T14:03:09;11.57;;;6.82;;
51020;SDS011;38907;45.562;8.856;2022-10-03T14:08:24;13.07;;;7.03;;
51020;SDS011;38907;45.562;8.856;2022-10-03T14:13:58;11.05;;;6.50;;
51020;SDS011;38907;45.562;8.856;2022-10-03T14:19:12;14.60;;;6.10;;
51020;SDS011;38907;45.562;8.856;2022-10-03T14:24:19;14.10;;;5.70;;
51020;SDS011;38907;45.562;8.856;2022-10-03T14:29:32;11.55;;;6.72;;
51020;SDS011;38907;45.562;8.856;2022-10-03T14:34:43;35.17;;;6.88;;
51020;SDS011;38907;45.562;8.856;2022-10-03T14:39:57;12.63;;;4.80;;
51020;SDS011;38907;45.562;8.856;2022-10-03T14:45:10;13.52;;;4.78;;
51020;SDS011;38907;45.562;8.856;2022-10-03T14:50:16;16.38;;;6.85;;
51020;SDS011;38907;45.562;8.856;2022-10-03T14:55:23;11.38;;;6.03;;
51020;SDS011;38907;45.562;8.856;2022-10-03T15:00:35;9.48;;;6.05;;
51020;SDS011;38907;45.562;8.856;2022-10-03T15:05:50;13.32;;;6.05;;
51020;SDS011;38907;45.562;8.856;2022-10-03T15:10:59;17.00;;;6.50;;
51020;SDS011;38907;45.562;8.856;2022-10-03T15:16:02;11.15;;;6.00;;
51020;SDS011;38907;45.562;8.856;2022-10-03T15:21:05;14.95;;;9.00;;
51020;SDS011;38907;45.562;8.856;2022-10-03T15:26:18;19.67;;;9.35;;
51020;SDS011;38907;45.562;8.856;2022-10-03T15:31:27;20.58;;;9.93;;
51020;SDS011;38907;45.562;8.856;2022-10-03T15:36:35;13.82;;;8.90;;
51020;SDS011;38907;45.562;8.856;2022-10-03T15:41:46;17.08;;;9.88;;
51020;SDS011;38907;45.562;8.856;2022-10-03T15:46:53;21.40;;;9.85;;
51020;SDS011;38907;45.562;8.856;2022-10-03T15:52:05;12.88;;;8.77;;
51020;SDS011;38907;45.562;8.856;2022-10-03T15:57:16;14.67;;;8.40;;
51020;SDS011;38907;45.562;8.856;2022-10-03T16:02:24;14.85;;;8.25;;
51020;SDS011;38907;45.562;8.856;2022-10-03T16:07:34;16.52;;;8.60;;
51020;SDS011;38907;45.562;8.856;2022-10-03T16:12:49;15.70;;;8.15;;
51020;SDS011;38907;45.562;8.856;2022-10-03T16:17:59;14.68;;;7.90;;
51020;SDS011;38907;45.562;8.856;2022-10-03T16:23:08;18.27;;;9.52;;
51020;SDS011;38907;45.562;8.856;2022-10-03T16:28:17;15.63;;;8.95;;
51020;SDS011;38907;45.562;8.856;2022-10-03T16:33:24;17.30;;;9.07;;
51020;SDS011;38907;45.562;8.856;2022-10-03T16:38:29;18.85;;;9.90;;
51020;SDS011;38907;45.562;8.856;2022-10-03T16:43:35;17.30;;;10.30;;
51020;SDS011;38907;45.562;8.856;2022-10-03T16:48:39;30.00;;;11.05;;
51020;SDS011;38907;45.562;8.856;2022-10-03T16:54:02;18.50;;;10.02;;
51020;SDS011;38907;45.562;8.856;2022-10-03T16:59:05;16.60;;;8.60;;
51020;SDS011;38907;45.562;8.856;2022-10-03T17:04:15;22.90;;;9.38;;
51020;SDS011;38907;45.562;8.856;2022-10-03T17:09:24;16.80;;;8.80;;
51020;SDS011;38907;45.562;8.856;2022-10-03T17:19:35;13.17;;;9.30;;
51020;SDS011;38907;45.562;8.856;2022-10-03T17:24:42;21.15;;;9.55;;
51020;SDS011;38907;45.562;8.856;2022-10-03T17:29:50;16.50;;;10.32;;
51020;SDS011;38907;45.562;8.856;2022-10-03T17:34:59;21.60;;;10.77;;
51020;SDS011;38907;45.562;8.856;2022-10-03T17:40:11;19.02;;;10.85;;
51020;SDS011;38907;45.562;8.856;2022-10-03T17:45:29;17.80;;;9.00;;
51020;SDS011;38907;45.562;8.856;2022-10-03T17:50:41;13.95;;;8.32;;
51020;SDS011;38907;45.562;8.856;2022-10-03T17:55:54;17.90;;;8.05;;
51020;SDS011;38907;45.562;8.856;2022-10-03T18:00:59;17.65;;;8.88;;
51020;SDS011;38907;45.562;8.856;2022-10-03T18:11:57;14.10;;;8.25;;
51020;SDS011;38907;45.562;8.856;2022-10-03T18:17:12;16.60;;;6.60;;
51020;SDS011;38907;45.562;8.856;2022-10-03T18:22:17;14.75;;;7.43;;
51020;SDS011;38907;45.562;8.856;2022-10-03T18:27:39;14.05;;;7.82;;
51020;SDS011;38907;45.562;8.856;2022-10-03T18:32:52;16.80;;;8.10;;
51020;SDS011;38907;45.562;8.856;2022-10-03T18:38:04;13.10;;;8.00;;
51020;SDS011;38907;45.562;8.856;2022-10-03T18:48:45;14.80;;;7.53;;
51020;SDS011;38907;45.562;8.856;2022-10-03T18:53:55;14.18;;;6.97;;
51020;SDS011;38907;45.562;8.856;2022-10-03T18:59:12;12.15;;;7.13;;
51020;SDS011;38907;45.562;8.856;2022-10-03T19:04:18;13.52;;;6.32;;
51020;SDS011;38907;45.562;8.856;2022-10-03T19:09:32;10.15;;;7.22;;
51020;SDS011;38907;45.562;8.856;2022-10-03T19:14:41;18.33;;;6.93;;
51020;SDS011;38907;45.562;8.856;2022-10-03T19:20:10;7.88;;;5.70;;
51020;SDS011;38907;45.562;8.856;2022-10-03T19:25:20;16.88;;;7.07;;
51020;SDS011;38907;45.562;8.856;2022-10-03T19:30:26;12.95;;;6.88;;
51020;SDS011;38907;45.562;8.856;2022-10-03T19:35:31;11.38;;;8.05;;
51020;SDS011;38907;45.562;8.856;2022-10-03T19:40:38;18.50;;;8.77;;
51020;SDS011;38907;45.562;8.856;2022-10-03T19:51:52;11.40;;;7.10;;
51020;SDS011;38907;45.562;8.856;2022-10-03T19:57:28;12.35;;;7.40;;
51020;SDS011;38907;45.562;8.856;2022-10-03T20:02:39;16.60;;;7.20;;
51020;SDS011;38907;45.562;8.856;2022-10-03T20:07:44;13.63;;;8.00;;
51020;SDS011;38907;45.562;8.856;2022-10-03T20:12:48;14.43;;;7.60;;
51020;SDS011;38907;45.562;8.856;2022-10-03T20:18:57;14.32;;;8.15;;
51020;SDS011;38907;45.562;8.856;2022-10-03T20:29:49;11.52;;;8.73;;
51020;SDS011;38907;45.562;8.856;2022-10-03T20:35:11;27.63;;;10.10;;
51020;SDS011;38907;45.562;8.856;2022-10-03T20:40:29;17.23;;;9.10;;
51020;SDS011;38907;45.562;8.856;2022-10-03T20:45:35;13.77;;;8.90;;
51020;SDS011;38907;45.562;8.856;2022-10-03T20:50:38;12.25;;;8.60;;
51020;SDS011;38907;45.562;8.856;2022-10-03T20:55:47;12.38;;;9.02;;
51020;SDS011;38907;45.562;8.856;2022-10-03T21:00:55;18.60;;;9.45;;
51020;SDS011;38907;45.562;8.856;2022-10-03T21:06:00;20.83;;;10.38;;
51020;SDS011;38907;45.562;8.856;2022-10-03T21:11:15;22.33;;;10.38;;
51020;SDS011;38907;45.562;8.856;2022-10-03T21:16:21;17.95;;;11.60;;
51020;SDS011;38907;45.562;8.856;2022-10-03T21:21:26;19.70;;;11.10;;
51020;SDS011;38907;45.562;8.856;2022-10-03T21:26:36;21.70;;;10.27;;
51020;SDS011;38907;45.562;8.856;2022-10-03T21:31:44;17.08;;;11.27;;
51020;SDS011;38907;45.562;8.856;2022-10-03T21:36:56;16.40;;;11.60;;
51020;SDS011;38907;45.562;8.856;2022-10-03T21:42:14;18.67;;;12.02;;
51020;SDS011;38907;45.562;8.856;2022-10-03T21:47:26;18.85;;;12.30;;
51020;SDS011;38907;45.562;8.856;2022-10-03T21:52:39;25.92;;;13.85;;
51020;SDS011;38907;45.562;8.856;2022-10-03T21:57:53;19.58;;;12.95;;
51020;SDS011;38907;45.562;8.856;2022-10-03T22:03:10;20.77;;;13.25;;
51020;SDS011;38907;45.562;8.856;2022-10-03T22:08:19;17.40;;;13.33;;
51020;SDS011;38907;45.562;8.856;2022-10-03T22:13:24;23.55;;;13.95;;
51020;SDS011;38907;45.562;8.856;2022-10-03T22:18:32;22.00;;;13.98;;
51020;SDS011;38907;45.562;8.856;2022-10-03T22:23:43;22.23;;;13.73;;
51020;SDS011;38907;45.562;8.856;2022-10-03T22:28:53;23.95;;;14.65;;
51020;SDS011;38907;45.562;8.856;2022-10-03T22:34:14;22.05;;;14.50;;
51020;SDS011;38907;45.562;8.856;2022-10-03T22:39:26;22.05;;;14.73;;
51020;SDS011;38907;45.562;8.856;2022-10-03T22:44:31;22.63;;;14.88;;
51020;SDS011;38907;45.562;8.856;2022-10-03T22:49:35;23.55;;;14.75;;
51020;SDS011;38907;45.562;8.856;2022-10-03T22:54:39;25.60;;;16.40;;
51020;SDS011;38907;45.562;8.856;2022-10-03T22:59:46;29.85;;;17.33;;
51020;SDS011;38907;45.562;8.856;2022-10-03T23:04:54;22.00;;;16.65;;
51020;SDS011;38907;45.562;8.856;2022-10-03T23:09:59;25.05;;;17.73;;
51020;SDS011;38907;45.562;8.856;2022-10-03T23:15:11;28.67;;;18.08;;
51020;SDS011;38907;45.562;8.856;2022-10-03T23:20:17;29.15;;;18.77;;
51020;SDS011;38907;45.562;8.856;2022-10-03T23:25:28;28.80;;;18.90;;
51020;SDS011;38907;45.562;8.856;2022-10-03T23:35:56;39.72;;;18.73;;
51020;SDS011;38907;45.562;8.856;2022-10-03T23:41:04;28.48;;;18.50;;
51020;SDS011;38907;45.562;8.856;2022-10-03T23:46:15;31.27;;;19.20;;
51020;SDS011;38907;45.562;8.856;2022-10-03T23:51:20;34.25;;;20.42;;
51020;SDS011;38907;45.562;8.856;2022-10-03T23:56:29;32.15;;;19.50;;
